createdAt,value
2022-12-14T00:00:30.894Z,17.03
2022-12-14T00:03:15.885Z,14.57
2022-12-14T00:05:59.763Z,14.00
2022-12-14T00:08:44.190Z,13.50
2022-12-14T00:11:29.818Z,13.47
2022-12-14T00:17:15.754Z,13.60
2022-12-14T00:19:59.949Z,12.43
2022-12-14T00:22:44.616Z,11.80
2022-12-14T00:25:28.362Z,12.83
2022-12-14T00:28:13.757Z,13.00
2022-12-14T00:31:00.894Z,12.80
2022-12-14T00:33:45.580Z,11.50
2022-12-14T00:36:31.832Z,12.90
2022-12-14T00:39:16.738Z,17.17
2022-12-14T00:42:00.978Z,18.00
2022-12-14T00:44:46.452Z,20.83
2022-12-14T00:47:30.700Z,19.00
2022-12-14T00:50:14.786Z,23.37
2022-12-14T00:52:58.879Z,21.73
2022-12-14T00:55:44.562Z,22.30
2022-12-14T00:58:33.423Z,23.17
2022-12-14T01:01:19.337Z,23.33
2022-12-14T01:04:17.438Z,20.83
2022-12-14T01:07:01.504Z,20.60
2022-12-14T01:09:45.468Z,21.27
2022-12-14T01:12:29.381Z,24.43
2022-12-14T01:15:14.759Z,19.07
2022-12-14T01:18:00.153Z,15.17
2022-12-14T01:20:44.369Z,13.40
2022-12-14T01:23:28.785Z,13.83
2022-12-14T01:26:13.949Z,13.33
2022-12-14T01:28:59.838Z,13.33
2022-12-14T01:31:43.995Z,15.57
2022-12-14T01:34:34.236Z,17.67
2022-12-14T01:37:18.387Z,19.87
2022-12-14T01:40:02.305Z,18.87
2022-12-14T01:42:47.367Z,17.57
2022-12-14T01:45:31.701Z,15.20
2022-12-14T01:48:15.925Z,15.07
2022-12-14T01:51:01.276Z,14.13
2022-12-14T01:53:45.391Z,13.93
2022-12-14T01:56:31.421Z,14.17
2022-12-14T01:59:20.942Z,13.87
2022-12-14T02:02:08.597Z,15.60
2022-12-14T02:04:55.865Z,14.30
2022-12-14T02:07:43.631Z,14.13
2022-12-14T02:10:33.781Z,13.73
2022-12-14T02:13:22.948Z,14.70
2022-12-14T02:16:07.914Z,14.23
2022-12-14T02:18:52.239Z,14.57
2022-12-14T02:21:48.768Z,15.30
2022-12-14T02:25:09.631Z,14.10
2022-12-14T02:28:24.124Z,14.93
2022-12-14T02:31:17.476Z,14.70
2022-12-14T02:34:10.754Z,13.43
2022-12-14T02:37:00.357Z,15.57
2022-12-14T02:39:54.613Z,14.07
2022-12-14T02:42:47.190Z,13.97
2022-12-14T02:45:38.350Z,14.77
2022-12-14T02:48:27.337Z,14.03
2022-12-14T02:51:23.603Z,14.07
2022-12-14T02:54:13.614Z,16.03
2022-12-14T02:57:03.028Z,15.50
2022-12-14T02:59:51.250Z,14.97
2022-12-14T03:02:37.083Z,15.97
2022-12-14T03:05:22.872Z,13.57
2022-12-14T03:08:09.960Z,14.80
2022-12-14T03:10:58.655Z,16.13
2022-12-14T03:13:49.342Z,21.70
2022-12-14T03:16:42.909Z,16.80
2022-12-14T03:19:31.663Z,17.87
2022-12-14T03:22:21.763Z,16.67
2022-12-14T03:25:10.880Z,18.33
2022-12-14T03:28:00.770Z,17.23
2022-12-14T03:31:05.084Z,34.17
2022-12-14T03:33:53.078Z,20.20
2022-12-14T03:36:42.191Z,22.70
2022-12-14T03:39:32.052Z,17.87
2022-12-14T03:42:22.387Z,17.00
2022-12-14T03:45:15.889Z,15.73
2022-12-14T03:48:09.242Z,14.10
2022-12-14T03:51:00.543Z,14.47
2022-12-14T03:53:51.429Z,14.50
2022-12-14T03:56:44.013Z,16.80
2022-12-14T03:59:37.751Z,15.53
2022-12-14T04:02:26.826Z,15.03
2022-12-14T04:05:16.674Z,14.07
2022-12-14T04:08:07.677Z,13.90
2022-12-14T04:11:11.386Z,13.53
2022-12-14T04:14:18.625Z,13.17
2022-12-14T04:17:23.964Z,13.20
2022-12-14T04:20:12.690Z,14.13
2022-12-14T04:23:06.417Z,13.73
2022-12-14T04:26:05.216Z,14.70
2022-12-14T04:29:12.524Z,13.23
2022-12-14T04:32:04.295Z,13.53
2022-12-14T04:34:52.324Z,16.17
2022-12-14T04:37:39.499Z,14.83
2022-12-14T04:40:27.109Z,15.60
2022-12-14T04:43:14.665Z,14.27
2022-12-14T04:46:05.259Z,14.73
2022-12-14T04:49:00.222Z,14.37
2022-12-14T04:51:50.390Z,18.90
2022-12-14T04:54:42.595Z,18.07
2022-12-14T04:57:32.496Z,18.80
2022-12-14T05:00:17.065Z,19.50
2022-12-14T05:03:18.394Z,16.77
2022-12-14T05:06:11.918Z,16.80
2022-12-14T05:09:14.373Z,16.23
2022-12-14T05:12:06.158Z,19.30
2022-12-14T05:14:54.098Z,23.13
2022-12-14T05:17:38.911Z,22.23
2022-12-14T05:20:24.972Z,27.10
2022-12-14T05:23:10.422Z,22.97
2022-12-14T05:25:54.386Z,24.70
2022-12-14T05:28:38.298Z,23.03
2022-12-14T05:31:22.457Z,21.90
2022-12-14T05:34:06.540Z,18.00
2022-12-14T05:36:50.477Z,25.40
2022-12-14T05:39:35.787Z,26.90
2022-12-14T05:42:19.679Z,23.93
2022-12-14T05:45:03.651Z,24.17
2022-12-14T05:47:48.130Z,18.27
2022-12-14T05:50:32.390Z,17.37
2022-12-14T05:53:16.412Z,19.60
2022-12-14T05:56:01.787Z,16.90
2022-12-14T05:58:45.829Z,16.47
2022-12-14T06:01:29.907Z,17.53
2022-12-14T06:04:15.802Z,17.00
2022-12-14T06:06:59.786Z,18.10
2022-12-14T06:09:43.691Z,19.03
2022-12-14T06:12:29.176Z,18.43
2022-12-14T06:15:14.159Z,18.70
2022-12-14T06:17:58.280Z,16.63
2022-12-14T06:20:42.483Z,17.97
2022-12-14T06:23:26.606Z,16.63
2022-12-14T06:26:11.607Z,18.13
2022-12-14T06:28:57.982Z,15.90
2022-12-14T06:31:41.903Z,17.20
2022-12-14T06:34:28.649Z,17.90
2022-12-14T06:37:13.123Z,21.27
2022-12-14T06:39:57.143Z,19.10
2022-12-14T06:42:41.104Z,21.30
2022-12-14T06:45:26.478Z,23.60
2022-12-14T06:48:10.607Z,30.23
2022-12-14T06:51:00.835Z,25.47
2022-12-14T06:53:44.888Z,20.43
2022-12-14T06:56:29.271Z,26.40
2022-12-14T06:59:14.486Z,23.07
2022-12-14T07:02:00.055Z,23.70
2022-12-14T07:04:44.353Z,20.70
2022-12-14T07:07:28.468Z,23.90
2022-12-14T07:10:13.577Z,37.67
2022-12-14T07:12:57.599Z,33.40
2022-12-14T07:15:41.678Z,28.17
2022-12-14T07:18:28.148Z,20.60
2022-12-14T07:21:13.843Z,19.07
2022-12-14T07:24:00.843Z,20.93
2022-12-14T07:26:44.927Z,19.87
2022-12-14T07:29:34.306Z,25.20
2022-12-14T07:32:18.900Z,31.67
2022-12-14T07:35:04.548Z,31.27
2022-12-14T07:37:50.723Z,28.97
2022-12-14T07:40:35.102Z,22.80
2022-12-14T07:43:18.937Z,22.63
2022-12-14T07:46:04.156Z,21.33
2022-12-14T07:48:49.948Z,23.20
2022-12-14T07:51:37.648Z,25.30
2022-12-14T07:54:21.389Z,29.23
2022-12-14T07:57:05.455Z,27.67
2022-12-14T07:59:52.946Z,30.43
2022-12-14T08:02:41.062Z,44.60
2022-12-14T08:05:24.842Z,56.40
2022-12-14T08:08:09.923Z,33.40
2022-12-14T08:10:53.693Z,30.83
2022-12-14T08:13:38.886Z,26.50
2022-12-14T08:16:23.199Z,26.20
2022-12-14T08:19:07.050Z,27.93
2022-12-14T08:21:50.816Z,33.50
2022-12-14T08:24:35.946Z,27.83
2022-12-14T08:27:19.635Z,26.00
2022-12-14T08:30:03.380Z,26.67
2022-12-14T08:32:47.754Z,26.80
2022-12-14T08:35:33.661Z,25.60
2022-12-14T08:38:17.607Z,27.03
2022-12-14T08:41:05.172Z,26.60
2022-12-14T08:43:51.657Z,27.87
2022-12-14T08:46:37.673Z,30.27
2022-12-14T08:49:21.487Z,26.70
2022-12-14T08:52:05.306Z,28.47
2022-12-14T08:54:49.100Z,25.67
2022-12-14T08:57:34.250Z,25.47
2022-12-14T09:00:18.486Z,25.60
2022-12-14T09:03:02.409Z,23.97
2022-12-14T09:05:46.210Z,24.63
2022-12-14T09:08:29.987Z,24.87
2022-12-14T09:11:15.251Z,23.47
2022-12-14T09:14:00.340Z,23.77
2022-12-14T09:16:44.130Z,25.37
2022-12-14T09:19:28.365Z,23.27
2022-12-14T09:22:13.472Z,22.47
2022-12-14T09:24:57.255Z,22.83
2022-12-14T09:27:41.037Z,24.67
2022-12-14T09:30:27.119Z,28.50
2022-12-14T09:33:11.025Z,33.80
2022-12-14T09:35:56.040Z,29.47
2022-12-14T09:38:43.081Z,46.43
2022-12-14T09:41:50.923Z,69.43
2022-12-14T09:44:54.221Z,23.97
2022-12-14T09:47:44.687Z,24.20
2022-12-14T09:50:30.169Z,24.07
2022-12-14T09:53:16.565Z,22.00
2022-12-14T09:56:00.601Z,22.43
2022-12-14T09:58:53.131Z,24.10
2022-12-14T10:02:30.362Z,22.53
2022-12-14T10:05:24.951Z,31.53
2022-12-14T10:08:17.033Z,25.90
2022-12-14T10:11:07.481Z,30.83
2022-12-14T10:14:06.630Z,28.43
2022-12-14T10:17:02.151Z,26.17
2022-12-14T10:19:53.691Z,24.10
2022-12-14T10:22:43.966Z,26.80
2022-12-14T10:25:29.627Z,26.10
2022-12-14T10:28:18.707Z,19.30
2022-12-14T10:31:03.860Z,17.93
2022-12-14T10:33:48.357Z,19.90
2022-12-14T10:36:40.676Z,15.50
2022-12-14T10:39:41.138Z,17.37
2022-12-14T10:42:32.030Z,18.03
2022-12-14T10:45:42.492Z,17.17
2022-12-14T10:48:48.990Z,16.67
2022-12-14T10:51:38.387Z,13.47
2022-12-14T10:54:31.673Z,13.23
2022-12-14T10:57:19.197Z,12.70
2022-12-14T11:00:09.587Z,12.17
2022-12-14T11:02:57.240Z,10.53
2022-12-14T11:05:48.008Z,9.17
2022-12-14T11:08:44.045Z,8.17
2022-12-14T11:11:33.976Z,9.00
2022-12-14T11:14:23.540Z,8.17
2022-12-14T11:17:07.574Z,9.00
2022-12-14T11:20:05.691Z,6.10
2022-12-14T11:22:51.675Z,6.47
2022-12-14T11:25:39.438Z,6.90
2022-12-14T11:28:36.585Z,6.33
2022-12-14T11:31:25.240Z,5.20
2022-12-14T11:34:23.372Z,4.57
2022-12-14T11:37:15.838Z,4.33
2022-12-14T11:40:01.901Z,4.17
2022-12-14T11:42:52.500Z,6.60
2022-12-14T11:45:38.353Z,6.87
2022-12-14T11:48:24.646Z,8.77
2022-12-14T11:51:13.244Z,5.10
2022-12-14T11:54:04.229Z,6.53
2022-12-14T11:56:51.527Z,7.80
2022-12-14T11:59:40.811Z,5.70
2022-12-14T12:02:30.263Z,6.10
2022-12-14T12:05:16.641Z,7.33
2022-12-14T12:08:02.389Z,8.13
2022-12-14T12:10:49.581Z,5.97
2022-12-14T12:13:39.367Z,7.53
2022-12-14T12:16:24.769Z,6.77
2022-12-14T12:19:13.692Z,7.33
2022-12-14T12:22:01.252Z,6.50
2022-12-14T12:28:11.672Z,9.83
2022-12-14T12:31:00.697Z,12.70
2022-12-14T12:33:49.117Z,7.37
2022-12-14T12:36:34.904Z,9.03
2022-12-14T12:39:22.914Z,9.03
2022-12-14T12:42:19.348Z,7.47
2022-12-14T12:45:09.332Z,8.17
2022-12-14T12:47:57.841Z,6.57
2022-12-14T12:50:49.917Z,8.27
2022-12-14T12:53:40.024Z,17.53
2022-12-14T12:56:28.361Z,10.43
2022-12-14T12:59:18.719Z,45.30
2022-12-14T13:02:18.128Z,14.90
2022-12-14T13:05:29.069Z,14.00
2022-12-14T13:08:19.426Z,14.43
2022-12-14T13:11:27.869Z,77.03
2022-12-14T13:14:29.236Z,16.70
2022-12-14T13:17:26.428Z,7.00
2022-12-14T13:20:21.030Z,8.93
2022-12-14T13:23:44.440Z,8.67
2022-12-14T13:26:55.677Z,12.43
2022-12-14T13:29:41.011Z,18.30
2022-12-14T13:32:43.378Z,14.20
2022-12-14T13:39:10.061Z,21.50
2022-12-14T13:42:03.197Z,10.30
2022-12-14T13:44:57.187Z,9.10
2022-12-14T13:47:44.213Z,9.13
2022-12-14T13:50:37.031Z,10.63
2022-12-14T13:53:28.899Z,14.07
2022-12-14T13:56:20.754Z,14.53
2022-12-14T13:59:22.401Z,16.53
2022-12-14T14:02:07.910Z,13.23
2022-12-14T14:04:51.744Z,16.23
2022-12-14T14:07:52.096Z,10.57
2022-12-14T14:10:38.290Z,12.53
2022-12-14T14:14:05.485Z,6.50
2022-12-14T14:16:56.136Z,10.37
2022-12-14T14:19:42.781Z,7.93
2022-12-14T14:22:33.465Z,8.77
2022-12-14T14:25:40.164Z,7.70
2022-12-14T14:28:31.720Z,9.53
2022-12-14T14:31:16.120Z,11.30
2022-12-14T14:34:01.868Z,12.20
2022-12-14T14:36:46.792Z,10.23
2022-12-14T14:39:56.533Z,8.77
2022-12-14T14:42:51.453Z,16.93
2022-12-14T14:45:40.121Z,24.93
2022-12-14T14:48:33.605Z,16.70
2022-12-14T14:51:22.250Z,11.93
2022-12-14T14:57:55.853Z,7.53
2022-12-14T15:00:42.686Z,6.83
2022-12-14T15:03:34.961Z,6.67
2022-12-14T15:06:24.459Z,6.97
2022-12-14T15:09:20.502Z,8.03
2022-12-14T15:12:20.284Z,9.63
2022-12-14T15:15:08.259Z,9.40
2022-12-14T15:17:52.504Z,16.70
2022-12-14T15:20:37.135Z,13.20
2022-12-14T15:23:23.298Z,12.63
2022-12-14T15:26:17.226Z,14.27
2022-12-14T15:29:04.714Z,15.00
2022-12-14T15:31:58.931Z,12.13
2022-12-14T15:34:53.363Z,14.77
2022-12-14T15:37:46.253Z,15.80
2022-12-14T15:40:32.687Z,9.93
2022-12-14T15:43:21.547Z,10.27
2022-12-14T15:46:17.163Z,7.77
2022-12-14T15:49:06.101Z,7.47
2022-12-14T15:52:12.576Z,7.23
2022-12-14T15:55:26.713Z,7.87
2022-12-14T15:58:20.743Z,8.10
2022-12-14T16:01:13.900Z,7.80
2022-12-14T16:04:05.674Z,8.30
2022-12-14T16:06:57.043Z,9.43
2022-12-14T16:09:44.609Z,13.30
2022-12-14T16:12:45.479Z,15.00
2022-12-14T16:15:32.559Z,14.93
2022-12-14T16:18:19.493Z,13.07
2022-12-14T16:21:06.268Z,13.20
2022-12-14T16:23:52.343Z,11.23
2022-12-14T16:26:39.180Z,13.67
2022-12-14T16:29:27.989Z,10.03
2022-12-14T16:32:17.858Z,12.13
2022-12-14T16:35:02.778Z,9.97
2022-12-14T16:37:53.395Z,9.70
2022-12-14T16:40:43.196Z,6.90
2022-12-14T16:43:34.072Z,7.47
2022-12-14T16:46:20.337Z,6.80
2022-12-14T16:49:33.225Z,50.80
2022-12-14T16:52:20.357Z,10.73
2022-12-14T16:55:11.994Z,12.53
2022-12-14T16:57:59.865Z,12.30
2022-12-14T17:00:57.614Z,9.00
2022-12-14T17:03:43.762Z,9.70
2022-12-14T17:06:41.018Z,15.27
2022-12-14T17:09:27.840Z,9.13
2022-12-14T17:12:15.706Z,7.47
2022-12-14T17:15:00.230Z,7.73
2022-12-14T17:17:49.296Z,8.73
2022-12-14T17:20:39.357Z,7.57
2022-12-14T17:23:25.677Z,7.03
2022-12-14T17:26:19.202Z,8.03
2022-12-14T17:29:03.689Z,8.03
2022-12-14T17:31:49.974Z,8.70
2022-12-14T17:34:34.498Z,9.90
2022-12-14T17:37:20.698Z,8.17
2022-12-14T17:40:08.423Z,8.17
2022-12-14T17:42:54.644Z,9.07
2022-12-14T17:45:38.666Z,11.20
2022-12-14T17:48:22.937Z,8.60
2022-12-14T17:51:07.467Z,11.00
2022-12-14T17:53:51.756Z,7.43
2022-12-14T17:56:37.291Z,11.83
2022-12-14T17:59:21.301Z,24.00
2022-12-14T18:02:05.398Z,37.27
2022-12-14T18:04:49.543Z,21.50
2022-12-14T18:07:33.924Z,9.37
2022-12-14T18:10:21.213Z,11.17
2022-12-14T18:13:06.944Z,8.60
2022-12-14T18:15:52.590Z,7.87
2022-12-14T18:18:40.799Z,6.87
2022-12-14T18:21:27.006Z,8.37
2022-12-14T18:24:15.554Z,7.73
2022-12-14T18:26:59.771Z,9.30
2022-12-14T18:29:45.424Z,9.70
2022-12-14T18:32:29.511Z,7.20
2022-12-14T18:35:18.734Z,7.00
2022-12-14T18:38:03.972Z,6.67
2022-12-14T18:40:50.231Z,6.43
2022-12-14T18:43:38.850Z,5.73
2022-12-14T18:46:28.159Z,5.03
2022-12-14T18:49:12.544Z,5.17
2022-12-14T18:51:56.700Z,5.50
2022-12-14T18:54:41.265Z,5.53
2022-12-14T18:57:25.537Z,4.87
2022-12-14T19:00:13.255Z,5.50
2022-12-14T19:03:01.391Z,6.13
2022-12-14T19:05:46.838Z,5.53
2022-12-14T19:08:31.256Z,5.33
2022-12-14T19:11:26.637Z,7.53
2022-12-14T19:14:11.345Z,5.87
2022-12-14T19:16:58.136Z,5.80
2022-12-14T19:19:44.672Z,6.27
2022-12-14T19:22:29.641Z,5.10
2022-12-14T19:25:20.204Z,6.13
2022-12-14T19:28:30.912Z,5.50
2022-12-14T19:31:11.301Z,6.87
2022-12-14T19:33:56.067Z,5.93
2022-12-14T19:36:41.723Z,4.97
2022-12-14T19:39:26.003Z,5.43
2022-12-14T19:42:10.169Z,4.60
2022-12-14T19:44:54.253Z,4.30
2022-12-14T19:47:38.470Z,4.30
2022-12-14T19:50:22.810Z,4.60
2022-12-14T19:53:08.468Z,4.50
2022-12-14T19:55:53.895Z,4.80
2022-12-14T19:58:38.981Z,6.20
2022-12-14T20:01:23.399Z,6.33
2022-12-14T20:04:08.609Z,7.43
2022-12-14T20:06:52.815Z,6.00
2022-12-14T20:09:38.739Z,7.23
2022-12-14T20:12:23.011Z,4.50
2022-12-14T20:15:07.939Z,4.10
2022-12-14T20:17:52.203Z,3.73
2022-12-14T20:20:36.299Z,3.73
2022-12-14T20:23:21.923Z,4.60
2022-12-14T20:26:09.600Z,5.30
2022-12-14T20:28:58.082Z,3.77
2022-12-14T20:31:42.513Z,4.17
2022-12-14T20:34:29.667Z,3.53
2022-12-14T20:37:14.178Z,4.30
2022-12-14T20:40:00.888Z,4.17
2022-12-14T20:42:49.139Z,4.87
2022-12-14T20:45:33.570Z,6.60
2022-12-14T20:48:17.783Z,5.03
2022-12-14T20:51:04.182Z,4.00
2022-12-14T20:53:49.216Z,4.27
2022-12-14T20:56:34.444Z,4.87
2022-12-14T20:59:20.282Z,4.53
2022-12-14T21:02:04.586Z,4.20
2022-12-14T21:04:48.605Z,6.13
2022-12-14T21:07:33.513Z,5.23
2022-12-14T21:10:17.439Z,5.27
2022-12-14T21:13:07.241Z,5.50
2022-12-14T21:15:52.932Z,4.93
2022-12-14T21:18:36.919Z,4.43
2022-12-14T21:21:20.849Z,5.23
2022-12-14T21:24:05.174Z,4.63
2022-12-14T21:26:49.135Z,4.37
2022-12-14T21:29:33.321Z,5.37
2022-12-14T21:32:19.457Z,4.20
2022-12-14T21:35:03.434Z,4.60
2022-12-14T21:37:47.436Z,4.40
2022-12-14T21:40:48.950Z,4.00
2022-12-14T21:43:33.154Z,4.27
2022-12-14T21:46:17.173Z,3.70
2022-12-14T21:49:02.343Z,4.17
2022-12-14T21:51:46.114Z,4.10
2022-12-14T21:54:33.565Z,3.90
2022-12-14T21:57:35.801Z,3.40
2022-12-14T22:00:20.564Z,3.63
2022-12-14T22:03:04.514Z,3.50
2022-12-14T22:05:49.619Z,3.57
2022-12-14T22:08:33.520Z,3.67
2022-12-14T22:11:17.345Z,3.77
2022-12-14T22:14:02.949Z,4.10
2022-12-14T22:16:47.016Z,3.83
2022-12-14T22:19:31.030Z,3.40
2022-12-14T22:22:18.052Z,3.23
2022-12-14T22:25:02.099Z,3.57
2022-12-14T22:27:49.769Z,3.20
2022-12-14T22:30:34.038Z,3.40
2022-12-14T22:33:17.784Z,3.43
2022-12-14T22:36:01.720Z,3.27
2022-12-14T22:38:46.957Z,3.33
2022-12-14T22:41:30.767Z,3.27
2022-12-14T22:44:14.573Z,3.30
2022-12-14T22:46:58.303Z,3.40
2022-12-14T22:49:42.095Z,6.00
2022-12-14T22:52:25.898Z,3.73
2022-12-14T22:55:11.986Z,3.53
2022-12-14T22:57:56.720Z,4.00
2022-12-14T23:00:40.692Z,3.50
2022-12-14T23:03:25.614Z,3.73
2022-12-14T23:06:15.619Z,3.80
2022-12-14T23:09:17.029Z,3.80
2022-12-14T23:12:21.911Z,3.77
2022-12-14T23:15:24.932Z,3.80
2022-12-14T23:18:27.079Z,3.47
2022-12-14T23:21:29.057Z,4.13
2022-12-14T23:24:30.679Z,3.83
2022-12-14T23:27:33.327Z,3.77
2022-12-14T23:30:34.720Z,4.00
2022-12-14T23:33:36.315Z,3.43
2022-12-14T23:36:37.344Z,3.90
2022-12-14T23:39:38.688Z,2.90
2022-12-14T23:42:41.146Z,3.40
2022-12-14T23:45:42.482Z,3.97
2022-12-14T23:48:43.333Z,3.70
2022-12-14T23:51:44.515Z,3.60
2022-12-14T23:54:45.777Z,4.20
2022-12-14T23:57:48.382Z,4.00
